createdAt,value
2023-01-24T00:00:32.514Z,33.87
2023-01-24T00:03:21.350Z,34.43
2023-01-24T00:06:10.729Z,33.93
2023-01-24T00:09:01.190Z,33.57
2023-01-24T00:11:53.475Z,34.13
2023-01-24T00:14:43.403Z,34.90
2023-01-24T00:17:32.549Z,35.00
2023-01-24T00:20:21.727Z,35.43
2023-01-24T00:23:10.432Z,33.37
2023-01-24T00:26:01.098Z,33.33
2023-01-24T00:28:50.465Z,34.63
2023-01-24T00:31:40.013Z,33.93
2023-01-24T00:34:29.092Z,33.57
2023-01-24T00:37:17.816Z,33.87
2023-01-24T00:40:07.431Z,35.27
2023-01-24T00:42:57.625Z,33.17
2023-01-24T00:45:51.211Z,32.47
2023-01-24T00:48:40.088Z,35.53
2023-01-24T00:51:29.110Z,33.87
2023-01-24T00:54:17.920Z,31.97
2023-01-24T00:57:07.018Z,33.17
2023-01-24T01:00:01.468Z,34.07
2023-01-24T01:02:50.544Z,32.67
2023-01-24T01:05:39.359Z,31.50
2023-01-24T01:08:31.519Z,32.40
2023-01-24T01:11:21.003Z,32.20
2023-01-24T01:14:09.994Z,32.83
2023-01-24T01:17:00.202Z,32.83
2023-01-24T01:19:52.488Z,31.73
2023-01-24T01:22:41.092Z,32.20
2023-01-24T01:25:30.268Z,31.27
2023-01-24T01:28:19.119Z,32.13
2023-01-24T01:31:07.881Z,31.53
2023-01-24T01:33:58.279Z,32.53
2023-01-24T01:36:51.168Z,30.73
2023-01-24T01:39:39.867Z,30.83
2023-01-24T01:42:30.869Z,33.77
2023-01-24T01:45:36.956Z,33.23
2023-01-24T01:48:31.498Z,33.27
2023-01-24T01:51:25.812Z,32.03
2023-01-24T01:54:20.152Z,34.57
2023-01-24T01:57:14.294Z,32.27
2023-01-24T02:00:08.082Z,32.70
2023-01-24T02:03:19.857Z,31.90
2023-01-24T02:06:20.631Z,33.20
2023-01-24T02:09:14.322Z,34.67
2023-01-24T02:12:06.937Z,32.83
2023-01-24T02:15:15.583Z,31.03
2023-01-24T02:18:05.233Z,32.30
2023-01-24T02:20:53.985Z,31.70
2023-01-24T02:23:52.577Z,31.87
2023-01-24T02:26:42.775Z,33.17
2023-01-24T02:29:32.150Z,30.83
2023-01-24T02:32:21.656Z,31.60
2023-01-24T02:35:24.359Z,32.23
2023-01-24T02:38:19.048Z,32.67
2023-01-24T02:41:09.653Z,32.17
2023-01-24T02:44:05.877Z,29.30
2023-01-24T02:46:54.867Z,31.90
2023-01-24T02:49:44.271Z,32.13
2023-01-24T02:52:50.249Z,32.17
2023-01-24T02:56:00.520Z,30.77
2023-01-24T02:58:50.235Z,30.53
2023-01-24T03:01:40.541Z,30.03
2023-01-24T03:04:30.213Z,29.67
2023-01-24T03:07:19.066Z,30.97
2023-01-24T03:10:16.296Z,31.07
2023-01-24T03:13:25.230Z,28.87
2023-01-24T03:16:32.038Z,28.93
2023-01-24T03:19:39.659Z,28.97
2023-01-24T03:22:46.777Z,29.33
2023-01-24T03:25:52.997Z,28.47
2023-01-24T03:28:59.335Z,27.30
2023-01-24T03:32:06.439Z,27.10
2023-01-24T03:34:57.130Z,27.80
2023-01-24T03:41:21.068Z,27.40
2023-01-24T03:44:10.374Z,27.70
2023-01-24T03:46:59.161Z,28.10
2023-01-24T03:50:06.540Z,25.90
2023-01-24T03:52:56.719Z,26.13
2023-01-24T03:55:45.826Z,26.83
2023-01-24T03:58:34.963Z,27.20
2023-01-24T04:01:28.004Z,26.87
2023-01-24T04:04:22.588Z,27.40
2023-01-24T04:07:25.582Z,26.90
2023-01-24T04:10:19.920Z,25.93
2023-01-24T04:13:11.721Z,26.53
2023-01-24T04:16:01.954Z,26.67
2023-01-24T04:19:16.831Z,26.17
2023-01-24T04:22:05.795Z,25.90
2023-01-24T04:24:56.358Z,25.40
2023-01-24T04:27:50.193Z,25.63
2023-01-24T04:30:44.951Z,24.40
2023-01-24T04:33:51.677Z,25.77
2023-01-24T04:36:41.097Z,24.30
2023-01-24T04:39:30.238Z,26.70
2023-01-24T04:42:34.336Z,24.90
2023-01-24T04:45:25.418Z,24.70
2023-01-24T04:48:14.098Z,25.40
2023-01-24T04:51:03.747Z,24.23
2023-01-24T04:53:54.475Z,26.63
2023-01-24T04:56:47.456Z,25.40
2023-01-24T04:59:36.225Z,24.93
2023-01-24T05:02:26.902Z,26.53
2023-01-24T05:05:15.848Z,24.50
2023-01-24T05:08:04.520Z,26.63
2023-01-24T05:10:53.213Z,25.13
2023-01-24T05:13:42.169Z,26.40
2023-01-24T05:16:31.711Z,25.67
2023-01-24T05:19:22.563Z,25.13
2023-01-24T05:22:11.263Z,24.83
2023-01-24T05:25:04.793Z,25.33
2023-01-24T05:27:54.619Z,24.97
2023-01-24T05:30:47.850Z,25.47
2023-01-24T05:33:44.822Z,26.53
2023-01-24T05:36:35.021Z,25.43
2023-01-24T05:39:23.812Z,26.20
2023-01-24T05:42:12.598Z,25.10
2023-01-24T05:45:07.480Z,27.50
2023-01-24T05:47:57.881Z,26.93
2023-01-24T05:50:46.826Z,26.43
2023-01-24T05:53:40.083Z,27.33
2023-01-24T05:56:32.291Z,27.60
2023-01-24T05:59:21.542Z,26.90
2023-01-24T06:02:10.755Z,27.00
2023-01-24T06:05:00.054Z,27.23
2023-01-24T06:07:51.939Z,28.13
2023-01-24T06:10:42.018Z,28.70
2023-01-24T06:13:33.981Z,27.33
2023-01-24T06:16:24.136Z,28.33
2023-01-24T06:19:17.537Z,28.90
2023-01-24T06:22:16.390Z,28.23
2023-01-24T06:25:09.868Z,28.93
2023-01-24T06:28:11.303Z,28.43
2023-01-24T06:31:12.541Z,28.47
2023-01-24T06:34:19.303Z,27.27
2023-01-24T06:37:16.579Z,26.83
2023-01-24T06:40:09.707Z,28.30
2023-01-24T06:42:58.890Z,28.00
2023-01-24T06:45:49.356Z,29.23
2023-01-24T06:48:38.315Z,29.40
2023-01-24T06:51:30.908Z,29.57
2023-01-24T06:54:19.785Z,28.17
2023-01-24T06:57:08.866Z,26.20
2023-01-24T06:59:57.707Z,27.23
2023-01-24T07:02:47.772Z,27.47
2023-01-24T07:05:37.567Z,29.60
2023-01-24T07:08:26.948Z,30.63
2023-01-24T07:11:15.807Z,29.80
2023-01-24T07:14:04.598Z,29.53
2023-01-24T07:16:55.216Z,29.73
2023-01-24T07:19:46.041Z,29.83
2023-01-24T07:22:35.353Z,28.97
2023-01-24T07:25:25.529Z,29.13
2023-01-24T07:28:15.412Z,30.63
2023-01-24T07:31:04.700Z,31.13
2023-01-24T07:33:53.433Z,29.97
2023-01-24T07:36:45.304Z,28.20
2023-01-24T07:39:34.002Z,28.33
2023-01-24T07:42:23.487Z,27.33
2023-01-24T07:45:12.348Z,28.80
2023-01-24T07:48:01.748Z,27.33
2023-01-24T07:50:50.488Z,27.63
2023-01-24T07:53:40.597Z,30.57
2023-01-24T07:56:30.100Z,29.30
2023-01-24T07:59:22.906Z,30.77
2023-01-24T08:02:16.269Z,27.73
2023-01-24T08:05:05.427Z,29.53
2023-01-24T08:07:57.116Z,29.40
2023-01-24T08:10:47.737Z,31.00
2023-01-24T08:13:36.635Z,31.07
2023-01-24T08:16:27.200Z,30.13
2023-01-24T08:19:29.723Z,30.77
2023-01-24T08:22:24.826Z,30.70
2023-01-24T08:25:13.667Z,29.93
2023-01-24T08:28:03.934Z,31.07
2023-01-24T08:30:52.680Z,30.20
2023-01-24T08:33:42.165Z,29.90
2023-01-24T08:36:31.778Z,29.07
2023-01-24T08:39:28.507Z,29.13
2023-01-24T08:42:17.685Z,30.67
2023-01-24T08:45:09.227Z,32.03
2023-01-24T08:47:58.167Z,32.20
2023-01-24T08:50:47.051Z,31.60
2023-01-24T08:53:35.824Z,32.10
2023-01-24T08:56:24.488Z,30.33
2023-01-24T08:59:13.140Z,31.63
2023-01-24T09:02:04.987Z,31.57
2023-01-24T09:08:21.118Z,30.07
2023-01-24T09:11:10.731Z,31.60
2023-01-24T09:13:59.971Z,32.27
2023-01-24T09:17:02.523Z,31.83
2023-01-24T09:19:51.539Z,33.23
2023-01-24T09:22:40.358Z,32.50
2023-01-24T09:25:31.755Z,31.57
2023-01-24T09:28:21.399Z,32.40
2023-01-24T09:31:11.628Z,31.47
2023-01-24T09:34:02.077Z,31.77
2023-01-24T09:36:51.130Z,31.43
2023-01-24T09:39:39.828Z,31.87
2023-01-24T09:42:36.703Z,32.70
2023-01-24T09:45:31.604Z,31.20
2023-01-24T09:48:22.554Z,30.97
2023-01-24T09:51:17.423Z,33.37
2023-01-24T09:54:07.791Z,34.40
2023-01-24T09:56:58.178Z,35.53
2023-01-24T09:59:54.917Z,33.80
2023-01-24T10:02:43.963Z,33.40
2023-01-24T10:05:37.662Z,31.80
2023-01-24T10:08:39.525Z,31.30
2023-01-24T10:11:37.031Z,29.40
2023-01-24T10:14:48.392Z,29.77
2023-01-24T10:17:54.414Z,30.03
2023-01-24T10:20:52.040Z,30.67
2023-01-24T10:23:44.905Z,30.23
2023-01-24T10:26:39.951Z,29.67
2023-01-24T10:29:32.411Z,32.03
2023-01-24T10:32:32.633Z,29.97
2023-01-24T10:35:27.611Z,30.17
2023-01-24T10:38:20.835Z,30.10
2023-01-24T10:41:22.950Z,29.80
2023-01-24T10:44:16.272Z,27.77
2023-01-24T10:47:41.161Z,27.80
2023-01-24T10:50:36.624Z,27.03
2023-01-24T10:53:30.677Z,26.17
2023-01-24T10:56:23.627Z,25.57
2023-01-24T10:59:14.142Z,25.63
2023-01-24T11:02:03.028Z,26.23
2023-01-24T11:05:01.461Z,26.67
2023-01-24T11:07:53.235Z,27.00
2023-01-24T11:10:44.096Z,26.50
2023-01-24T11:13:39.315Z,27.83
2023-01-24T11:16:34.849Z,27.90
2023-01-24T11:19:33.108Z,29.60
2023-01-24T11:22:23.507Z,26.70
2023-01-24T11:25:17.158Z,27.27
2023-01-24T11:28:06.443Z,26.93
2023-01-24T11:30:58.017Z,27.83
2023-01-24T11:34:19.785Z,27.47
2023-01-24T11:37:29.415Z,25.70
2023-01-24T11:40:27.702Z,26.20
2023-01-24T11:43:32.880Z,26.30
2023-01-24T11:46:53.171Z,27.47
2023-01-24T11:50:00.286Z,26.70
2023-01-24T11:52:57.062Z,28.10
2023-01-24T11:55:56.509Z,27.53
2023-01-24T11:59:00.229Z,28.67
2023-01-24T12:02:02.494Z,25.50
2023-01-24T12:05:31.382Z,25.10
2023-01-24T12:08:32.374Z,26.47
2023-01-24T12:11:35.688Z,24.87
2023-01-24T12:14:54.152Z,25.03
2023-01-24T12:18:19.875Z,26.23
2023-01-24T12:21:10.434Z,26.03
2023-01-24T12:24:03.629Z,26.50
2023-01-24T12:26:57.638Z,26.13
2023-01-24T12:29:57.465Z,24.73
2023-01-24T12:32:54.997Z,23.93
2023-01-24T12:35:48.757Z,23.93
2023-01-24T12:38:41.495Z,24.87
2023-01-24T12:41:34.399Z,24.50
2023-01-24T12:44:31.729Z,24.50
2023-01-24T12:47:34.409Z,23.57
2023-01-24T12:50:30.511Z,25.17
2023-01-24T12:53:27.434Z,23.73
2023-01-24T12:56:22.049Z,23.97
2023-01-24T12:59:12.572Z,24.57
2023-01-24T13:02:31.460Z,23.30
2023-01-24T13:05:47.352Z,23.50
2023-01-24T13:08:55.435Z,24.10
2023-01-24T13:11:47.911Z,24.50
2023-01-24T13:14:40.734Z,24.83
2023-01-24T13:17:56.650Z,24.20
2023-01-24T13:20:58.342Z,24.80
2023-01-24T13:24:01.190Z,24.40
2023-01-24T13:27:13.403Z,24.50
2023-01-24T13:30:16.798Z,24.43
2023-01-24T13:33:07.418Z,24.93
2023-01-24T13:35:56.191Z,24.87
2023-01-24T13:38:46.406Z,25.83
2023-01-24T13:41:39.062Z,25.20
2023-01-24T13:44:34.452Z,24.90
2023-01-24T13:47:37.233Z,25.37
2023-01-24T13:50:27.531Z,25.87
2023-01-24T13:53:57.338Z,23.37
2023-01-24T13:57:35.383Z,25.00
2023-01-24T14:00:30.192Z,23.97
2023-01-24T14:03:22.778Z,25.00
2023-01-24T14:06:19.104Z,24.93
2023-01-24T14:09:20.571Z,27.57
2023-01-24T14:12:18.263Z,25.17
2023-01-24T14:15:25.835Z,26.20
2023-01-24T14:18:49.009Z,25.83
2023-01-24T14:21:49.787Z,26.07
2023-01-24T14:24:51.980Z,25.27
2023-01-24T14:27:50.394Z,25.97
2023-01-24T14:30:45.482Z,24.73
2023-01-24T14:33:47.263Z,27.10
2023-01-24T14:36:39.858Z,26.43
2023-01-24T14:39:30.055Z,25.97
2023-01-24T14:42:19.850Z,28.03
2023-01-24T14:45:16.048Z,28.50
2023-01-24T14:48:10.309Z,25.77
2023-01-24T14:51:05.918Z,26.63
2023-01-24T14:53:56.034Z,27.13
2023-01-24T14:56:45.157Z,26.83
2023-01-24T14:59:34.214Z,27.37
2023-01-24T15:02:23.021Z,27.80
2023-01-24T15:05:25.420Z,26.83
2023-01-24T15:08:18.791Z,24.93
2023-01-24T15:11:18.891Z,26.23
2023-01-24T15:14:18.133Z,25.83
2023-01-24T15:17:06.905Z,24.37
2023-01-24T15:19:59.697Z,26.67
2023-01-24T15:22:52.755Z,24.27
2023-01-24T15:25:47.124Z,24.13
2023-01-24T15:28:37.112Z,22.67
2023-01-24T15:31:30.446Z,23.63
2023-01-24T15:34:21.975Z,23.00
2023-01-24T15:37:15.373Z,23.10
2023-01-24T15:40:04.287Z,22.93
2023-01-24T15:43:12.146Z,23.27
2023-01-24T15:46:15.074Z,23.57
2023-01-24T15:49:05.673Z,22.57
2023-01-24T15:52:02.845Z,22.93
2023-01-24T15:54:58.515Z,22.43
2023-01-24T15:57:47.440Z,22.17
2023-01-24T16:00:38.619Z,21.47
2023-01-24T16:03:28.247Z,21.10
2023-01-24T16:06:17.542Z,22.47
2023-01-24T16:09:06.310Z,21.17
2023-01-24T16:11:55.203Z,20.60
2023-01-24T16:15:02.357Z,21.20
2023-01-24T16:17:56.497Z,21.37
2023-01-24T16:20:45.239Z,20.70
2023-01-24T16:23:33.972Z,20.60
2023-01-24T16:26:24.848Z,20.63
2023-01-24T16:29:16.327Z,20.73
2023-01-24T16:32:06.562Z,19.47
2023-01-24T16:34:57.111Z,19.17
2023-01-24T16:37:46.583Z,18.80
2023-01-24T16:40:35.287Z,19.97
2023-01-24T16:43:25.327Z,19.40
2023-01-24T16:46:19.213Z,20.33
2023-01-24T16:49:08.652Z,22.33
2023-01-24T16:52:00.378Z,22.67
2023-01-24T16:54:51.396Z,23.70
2023-01-24T16:57:40.427Z,23.27
2023-01-24T17:00:29.381Z,23.23
2023-01-24T17:03:18.210Z,23.93
2023-01-24T17:06:08.550Z,24.93
2023-01-24T17:08:58.967Z,23.93
2023-01-24T17:11:47.757Z,24.90
2023-01-24T17:14:36.680Z,25.27
2023-01-24T17:17:26.178Z,24.90
2023-01-24T17:20:15.488Z,24.80
2023-01-24T17:23:04.317Z,26.07
2023-01-24T17:26:01.653Z,26.00
2023-01-24T17:28:50.548Z,25.83
2023-01-24T17:31:39.618Z,26.10
2023-01-24T17:34:28.862Z,24.07
2023-01-24T17:37:17.641Z,24.10
2023-01-24T17:40:08.072Z,26.50
2023-01-24T17:42:58.154Z,25.27
2023-01-24T17:45:53.902Z,24.50
2023-01-24T17:48:42.809Z,24.57
2023-01-24T17:51:32.956Z,24.97
2023-01-24T17:54:25.490Z,24.23
2023-01-24T17:57:14.280Z,24.43
2023-01-24T18:00:06.404Z,24.83
2023-01-24T18:03:00.487Z,23.63
2023-01-24T18:05:49.473Z,23.87
2023-01-24T18:08:38.172Z,24.03
2023-01-24T18:11:26.910Z,24.17
2023-01-24T18:14:15.628Z,23.13
2023-01-24T18:17:05.657Z,23.27
2023-01-24T18:19:54.362Z,22.13
2023-01-24T18:22:43.739Z,23.47
2023-01-24T18:25:33.609Z,22.83
2023-01-24T18:28:22.316Z,21.57
2023-01-24T18:31:12.454Z,22.57
2023-01-24T18:34:02.903Z,21.63
2023-01-24T18:36:51.872Z,21.77
2023-01-24T18:39:40.623Z,21.30
2023-01-24T18:42:32.135Z,22.00
2023-01-24T18:45:20.839Z,21.27
2023-01-24T18:48:09.819Z,20.97
2023-01-24T18:51:00.240Z,21.60
2023-01-24T18:53:52.699Z,20.80
2023-01-24T18:56:47.653Z,22.87
2023-01-24T18:59:36.785Z,22.80
2023-01-24T19:02:25.631Z,21.90
2023-01-24T19:05:14.517Z,20.90
2023-01-24T19:08:09.274Z,22.27
2023-01-24T19:10:58.406Z,21.43
2023-01-24T19:13:47.244Z,23.50
2023-01-24T19:16:37.355Z,25.27
2023-01-24T19:19:26.307Z,24.27
2023-01-24T19:22:15.085Z,24.20
2023-01-24T19:25:05.918Z,23.27
2023-01-24T19:27:54.821Z,23.60
2023-01-24T19:30:43.748Z,22.27
2023-01-24T19:33:33.365Z,21.57
2023-01-24T19:36:26.759Z,21.57
2023-01-24T19:39:15.956Z,24.43
2023-01-24T19:42:06.607Z,23.10
2023-01-24T19:44:55.495Z,24.47
2023-01-24T19:47:49.586Z,23.97
2023-01-24T19:50:38.364Z,23.90
2023-01-24T19:53:27.051Z,24.90
2023-01-24T19:56:15.903Z,26.17
2023-01-24T19:59:06.417Z,27.17
2023-01-24T20:01:55.668Z,26.53
2023-01-24T20:04:51.970Z,26.97
2023-01-24T20:07:41.095Z,27.60
2023-01-24T20:10:30.100Z,27.80
2023-01-24T20:13:26.419Z,30.07
2023-01-24T20:16:22.670Z,28.63
2023-01-24T20:19:26.257Z,29.17
2023-01-24T20:22:16.196Z,29.83
2023-01-24T20:25:18.407Z,30.70
2023-01-24T20:28:08.306Z,30.20
2023-01-24T20:31:01.333Z,29.23
2023-01-24T20:33:52.010Z,27.67
2023-01-24T20:36:41.385Z,29.77
2023-01-24T20:39:30.204Z,32.07
2023-01-24T20:42:18.886Z,30.53
2023-01-24T20:45:08.899Z,29.27
2023-01-24T20:47:57.783Z,27.97
2023-01-24T20:50:56.158Z,27.57
2023-01-24T20:53:45.437Z,27.10
2023-01-24T20:56:34.089Z,27.53
2023-01-24T20:59:23.015Z,28.07
2023-01-24T21:02:11.940Z,29.70
2023-01-24T21:05:01.044Z,26.10
2023-01-24T21:07:51.170Z,26.40
2023-01-24T21:10:39.874Z,25.83
2023-01-24T21:13:40.410Z,26.70
2023-01-24T21:16:32.061Z,19.67
2023-01-24T21:19:22.237Z,22.10
2023-01-24T21:22:12.114Z,24.37
2023-01-24T21:25:02.899Z,24.00
2023-01-24T21:27:52.595Z,25.10
2023-01-24T21:30:41.454Z,23.33
2023-01-24T21:33:30.941Z,24.23
2023-01-24T21:36:22.081Z,22.20
2023-01-24T21:39:11.116Z,22.70
2023-01-24T21:42:02.903Z,22.00
2023-01-24T21:44:51.536Z,20.47
2023-01-24T21:47:41.452Z,21.03
2023-01-24T21:50:30.300Z,19.83
2023-01-24T21:53:32.841Z,20.40
2023-01-24T21:56:39.514Z,19.97
2023-01-24T21:59:31.465Z,20.10
2023-01-24T22:02:22.136Z,20.47
2023-01-24T22:05:11.991Z,18.87
2023-01-24T22:08:01.202Z,17.30
2023-01-24T22:10:49.878Z,17.33
2023-01-24T22:13:38.659Z,18.10
2023-01-24T22:16:30.497Z,17.50
2023-01-24T22:19:20.937Z,17.30
2023-01-24T22:22:43.848Z,16.93
2023-01-24T22:25:41.843Z,17.37
2023-01-24T22:28:34.009Z,16.73
2023-01-24T22:31:23.236Z,16.70
2023-01-24T22:34:26.048Z,17.07
2023-01-24T22:37:22.262Z,17.47
2023-01-24T22:40:12.274Z,17.93
2023-01-24T22:43:01.179Z,17.50
2023-01-24T22:45:50.285Z,19.07
2023-01-24T22:48:39.004Z,18.80
2023-01-24T22:51:29.611Z,17.67
2023-01-24T22:54:18.559Z,19.23
2023-01-24T22:57:12.282Z,19.20
2023-01-24T23:00:01.871Z,17.93
2023-01-24T23:02:51.791Z,17.03
2023-01-24T23:05:40.468Z,18.60
2023-01-24T23:08:31.366Z,19.67
2023-01-24T23:11:21.524Z,17.60
2023-01-24T23:14:30.426Z,17.83
2023-01-24T23:17:19.312Z,14.97
2023-01-24T23:20:27.907Z,14.77
2023-01-24T23:23:17.364Z,17.10
2023-01-24T23:26:07.711Z,17.40
2023-01-24T23:29:07.298Z,17.90
2023-01-24T23:31:56.236Z,15.90
2023-01-24T23:34:47.708Z,15.63
2023-01-24T23:37:36.538Z,15.43
2023-01-24T23:40:25.138Z,16.00
2023-01-24T23:43:15.555Z,14.97
2023-01-24T23:46:04.346Z,14.67
2023-01-24T23:48:55.316Z,13.47
2023-01-24T23:51:44.068Z,13.80
2023-01-24T23:54:33.039Z,10.53
2023-01-24T23:57:21.700Z,10.03
